KSZL/SZL METAR and TAF weather

Enter ICAO airport designator
Station Type Date Time Source
KSZL METAR 2021/05/13 18:56 UTC NOAA

KSZL 131856Z 01005KT 10SM FEW060 18/01 A3032 RMK AO2A SLP271 T01790010 $


Station Type Date Time Source
KSZL Decoded METAR 2021/05/13 18:56 UTC NOAA

Whiteman Air Force Base, MO, United States (KSZL) 38-44N 093-33W
May 13, 2021 - 02:56 PM EDT / 2021.05.13 1856 UTC
Wind: from the N (010 degrees) at 6 MPH (5 KT):0
Visibility: 10 mile(s):0
Sky conditions: mostly clear
Temperature: 64.2 F (17.9 C)
Dew Point: 33.8 F (1.0 C)
Relative Humidity: 32%
Pressure (altimeter): 30.32 in. Hg (1026 hPa)
ob: KSZL 131856Z 01005KT 10SM FEW060 18/01 A3032 RMK AO2A SLP271 T01790010
cycle: 19

Station Type Date Time Source
KSZL TAF 2021/05/13 19:12 UTC NOAA

TAF KSZL 131900Z 1319/1501 12006KT 9999 SKC QNH3023INS
BECMG 1410/1411 15009KT 9999 SCT050 BKN140 601405 QNH3023INS
BECMG 1414/1415 18010G15KT 9999 BKN050 OVC120 601209 QNH3010INS TX20/1321Z TN07/1411Z

Example: see airport list